createdAt,value
2018-07-15T00:00:51.139Z,21.35
2018-07-15T00:01:51.094Z,21.36
2018-07-15T00:02:51.068Z,21.29
2018-07-15T00:03:51.125Z,21.34
2018-07-15T00:04:50.995Z,21.38
2018-07-15T00:05:50.998Z,21.30
2018-07-15T00:06:50.935Z,21.32
2018-07-15T00:07:50.907Z,21.29
2018-07-15T00:08:50.876Z,21.27
2018-07-15T00:09:50.843Z,21.24
2018-07-15T00:10:50.834Z,21.29
2018-07-15T00:11:50.799Z,21.36
2018-07-15T00:12:50.748Z,21.30
2018-07-15T00:13:50.718Z,21.30
2018-07-15T00:14:50.686Z,21.30
2018-07-15T00:15:50.663Z,21.27
2018-07-15T00:16:50.632Z,21.32
2018-07-15T00:17:50.626Z,21.29
2018-07-15T00:18:50.563Z,21.29
2018-07-15T00:19:50.635Z,21.32
2018-07-15T00:20:50.508Z,21.23
2018-07-15T00:21:50.474Z,21.30
2018-07-15T00:22:50.444Z,21.30
2018-07-15T00:23:50.423Z,21.16
2018-07-15T00:24:50.382Z,21.13
2018-07-15T00:25:50.343Z,21.02
2018-07-15T00:26:50.339Z,21.05
2018-07-15T00:27:50.286Z,20.87
2018-07-15T00:28:50.267Z,20.93
2018-07-15T00:29:50.240Z,20.84
2018-07-15T00:30:50.197Z,20.95
2018-07-15T00:31:50.178Z,20.89
2018-07-15T00:32:50.127Z,20.90
2018-07-15T00:33:50.101Z,20.87
2018-07-15T00:34:50.077Z,20.96
2018-07-15T00:35:50.059Z,21.01
2018-07-15T00:36:50.005Z,21.02
2018-07-15T00:37:49.981Z,21.16
2018-07-15T00:38:49.945Z,21.11
2018-07-15T00:39:49.907Z,21.17
2018-07-15T00:40:49.881Z,21.26
2018-07-15T00:41:49.857Z,21.29
2018-07-15T00:42:49.826Z,21.19
2018-07-15T00:43:49.791Z,21.23
2018-07-15T00:44:49.760Z,21.27
2018-07-15T00:45:50.080Z,21.36
2018-07-15T00:46:49.692Z,21.45
2018-07-15T00:47:49.673Z,21.50
2018-07-15T00:48:49.638Z,21.41
2018-07-15T00:49:49.599Z,21.50
2018-07-15T00:50:49.590Z,21.39
2018-07-15T00:51:49.689Z,21.35
2018-07-15T00:52:49.517Z,21.36
2018-07-15T00:53:49.478Z,21.35
2018-07-15T00:54:49.452Z,21.29
2018-07-15T00:55:49.423Z,21.29
2018-07-15T00:56:49.384Z,21.17
2018-07-15T00:57:49.356Z,21.23
2018-07-15T00:58:49.324Z,21.14
2018-07-15T00:59:49.298Z,21.11
2018-07-15T01:00:49.331Z,21.13
2018-07-15T01:01:49.222Z,21.09
2018-07-15T01:02:49.207Z,21.06
2018-07-15T01:03:49.168Z,21.08
2018-07-15T01:04:49.131Z,20.87
2018-07-15T01:05:49.105Z,20.81
2018-07-15T01:06:49.071Z,20.84
2018-07-15T01:07:49.043Z,20.76
2018-07-15T01:08:49.036Z,20.71
2018-07-15T01:09:49.003Z,20.65
2018-07-15T01:10:48.942Z,20.68
2018-07-15T01:11:48.923Z,20.50
2018-07-15T01:12:48.904Z,20.54
2018-07-15T01:13:48.848Z,20.41
2018-07-15T01:14:48.841Z,20.43
2018-07-15T01:15:48.801Z,20.41
2018-07-15T01:16:48.776Z,20.38
2018-07-15T01:17:48.737Z,20.31
2018-07-15T01:18:48.707Z,20.33
2018-07-15T01:19:48.669Z,20.33
2018-07-15T01:20:48.635Z,20.33
2018-07-15T01:21:48.603Z,20.35
2018-07-15T01:22:48.669Z,20.35
2018-07-15T01:23:48.539Z,20.35
2018-07-15T01:24:48.506Z,20.41
2018-07-15T01:25:48.485Z,20.54
2018-07-15T01:26:48.451Z,20.59
2018-07-15T01:27:48.417Z,20.47
2018-07-15T01:28:48.383Z,20.49
2018-07-15T01:29:48.404Z,20.56
2018-07-15T01:30:48.326Z,20.56
2018-07-15T01:31:48.303Z,20.68
2018-07-15T01:32:48.307Z,20.66
2018-07-15T01:33:48.222Z,20.64
2018-07-15T01:34:48.199Z,20.68
2018-07-15T01:35:48.174Z,20.66
2018-07-15T01:36:48.138Z,20.54
2018-07-15T01:37:48.113Z,20.41
2018-07-15T01:38:48.068Z,20.24
2018-07-15T01:39:48.108Z,20.13
2018-07-15T01:40:48.007Z,20.05
2018-07-15T01:41:47.975Z,20.10
2018-07-15T01:42:47.944Z,20.03
2018-07-15T01:43:47.916Z,19.98
2018-07-15T01:44:48.000Z,19.93
2018-07-15T01:45:47.851Z,19.93
2018-07-15T01:46:47.822Z,19.93
2018-07-15T01:47:47.810Z,19.91
2018-07-15T01:48:47.773Z,19.97
2018-07-15T01:49:47.733Z,19.98
2018-07-15T01:50:47.947Z,20.03
2018-07-15T01:51:47.662Z,20.05
2018-07-15T01:52:47.624Z,20.06
2018-07-15T01:53:47.594Z,20.18
2018-07-15T01:54:47.563Z,20.06
2018-07-15T01:55:47.534Z,20.09
2018-07-15T01:56:47.598Z,19.95
2018-07-15T01:57:47.467Z,19.79
2018-07-15T01:58:47.444Z,19.83
2018-07-15T01:59:47.404Z,19.70
2018-07-15T02:00:47.381Z,19.75
2018-07-15T02:01:47.357Z,19.69
2018-07-15T02:02:47.308Z,19.70
2018-07-15T02:03:47.284Z,19.69
2018-07-15T02:04:47.250Z,19.75
2018-07-15T02:05:47.211Z,19.79
2018-07-15T02:06:47.194Z,19.91
2018-07-15T02:07:47.149Z,19.91
2018-07-15T02:08:47.127Z,19.76
2018-07-15T02:09:47.083Z,19.86
2018-07-15T02:10:47.058Z,19.70
2018-07-15T02:11:47.028Z,19.65
2018-07-15T02:12:46.991Z,19.58
2018-07-15T02:13:46.955Z,19.57
2018-07-15T02:14:46.934Z,19.51
2018-07-15T02:15:46.900Z,19.54
2018-07-15T02:16:46.869Z,19.51
2018-07-15T02:17:46.836Z,19.57
2018-07-15T02:18:46.799Z,19.51
2018-07-15T02:19:46.773Z,19.40
2018-07-15T02:20:46.736Z,19.42
2018-07-15T02:21:46.705Z,19.39
2018-07-15T02:22:46.688Z,19.39
2018-07-15T02:23:46.637Z,19.40
2018-07-15T02:24:46.619Z,19.31
2018-07-15T02:25:46.586Z,19.39
2018-07-15T02:26:46.553Z,19.36
2018-07-15T02:27:46.525Z,19.38
2018-07-15T02:28:46.738Z,19.43
2018-07-15T02:29:46.454Z,19.47
2018-07-15T02:30:46.431Z,19.53
2018-07-15T02:31:46.388Z,19.48
2018-07-15T02:32:46.358Z,19.48
2018-07-15T02:33:46.340Z,19.61
2018-07-15T02:34:46.300Z,19.53
2018-07-15T02:35:46.265Z,19.69
2018-07-15T02:36:46.238Z,19.54
2018-07-15T02:37:46.194Z,19.63
2018-07-15T02:38:46.159Z,19.60
2018-07-15T02:39:46.140Z,19.55
2018-07-15T02:40:46.121Z,19.61
2018-07-15T02:41:46.064Z,19.50
2018-07-15T02:42:46.033Z,19.53
2018-07-15T02:43:46.015Z,19.53
2018-07-15T02:44:45.970Z,19.58
2018-07-15T02:45:45.952Z,19.53
2018-07-15T02:46:45.917Z,19.43
2018-07-15T02:47:45.878Z,19.40
2018-07-15T02:48:45.896Z,19.47
2018-07-15T02:49:45.959Z,19.39
2018-07-15T02:50:45.786Z,19.33
2018-07-15T02:51:45.753Z,19.39
2018-07-15T02:52:45.715Z,19.33
2018-07-15T02:53:45.710Z,19.28
2018-07-15T02:54:45.658Z,19.42
2018-07-15T02:55:45.615Z,19.36
2018-07-15T02:56:45.596Z,19.46
2018-07-15T02:57:45.553Z,19.47
2018-07-15T02:58:45.529Z,19.53
2018-07-15T02:59:45.493Z,19.60
2018-07-15T03:00:45.589Z,19.58
2018-07-15T03:01:45.427Z,19.60
2018-07-15T03:02:45.389Z,19.68
2018-07-15T03:03:45.361Z,19.51
2018-07-15T03:04:45.328Z,19.65
2018-07-15T03:05:45.312Z,19.68
2018-07-15T03:06:45.289Z,19.50
2018-07-15T03:07:45.236Z,19.66
2018-07-15T03:08:45.198Z,19.65
2018-07-15T03:09:45.175Z,19.55
2018-07-15T03:10:45.143Z,19.53
2018-07-15T03:11:45.117Z,19.61
2018-07-15T03:12:45.080Z,19.51
2018-07-15T03:13:45.054Z,19.54
2018-07-15T03:14:45.011Z,19.58
2018-07-15T03:15:44.988Z,19.76
2018-07-15T03:16:44.943Z,19.54
2018-07-15T03:17:44.913Z,19.54
2018-07-15T03:18:44.905Z,19.42
2018-07-15T03:19:44.854Z,19.33
2018-07-15T03:20:44.820Z,19.33
2018-07-15T03:21:44.803Z,19.25
2018-07-15T03:22:44.748Z,19.32
2018-07-15T03:23:44.748Z,19.31
2018-07-15T03:24:44.690Z,19.29
2018-07-15T03:25:44.659Z,19.24
2018-07-15T03:26:44.621Z,19.25
2018-07-15T03:27:44.591Z,19.14
2018-07-15T03:28:44.552Z,19.10
2018-07-15T03:29:44.520Z,19.10
2018-07-15T03:30:44.493Z,19.15
2018-07-15T03:31:44.612Z,19.01
2018-07-15T03:32:44.434Z,18.99
2018-07-15T03:33:44.392Z,18.97
2018-07-15T03:34:44.362Z,19.11
2018-07-15T03:35:44.333Z,19.10
2018-07-15T03:36:44.303Z,19.14
2018-07-15T03:37:44.263Z,19.05
2018-07-15T03:38:44.240Z,19.01
2018-07-15T03:39:44.240Z,18.99
2018-07-15T03:40:44.172Z,18.94
2018-07-15T03:41:44.141Z,18.97
2018-07-15T03:42:44.204Z,19.01
2018-07-15T03:43:44.072Z,18.99
2018-07-15T03:44:44.047Z,19.08
2018-07-15T03:45:44.006Z,19.10
2018-07-15T03:46:43.978Z,19.13
2018-07-15T03:47:43.944Z,19.13
2018-07-15T03:48:43.908Z,19.13
2018-07-15T03:49:43.882Z,19.15
2018-07-15T03:50:43.851Z,19.14
2018-07-15T03:51:43.816Z,19.17
2018-07-15T03:53:43.755Z,19.10
2018-07-15T03:54:43.713Z,19.05
2018-07-15T03:55:43.683Z,19.06
2018-07-15T03:56:43.651Z,19.08
2018-07-15T03:57:43.768Z,18.95
2018-07-15T03:58:43.596Z,18.95
2018-07-15T03:59:43.557Z,18.99
2018-07-15T04:00:43.543Z,18.97
2018-07-15T04:01:43.503Z,19.01
2018-07-15T04:02:43.460Z,18.90
2018-07-15T04:03:43.452Z,18.92
2018-07-15T04:04:43.398Z,18.87
2018-07-15T04:05:43.364Z,18.87
2018-07-15T04:06:43.325Z,18.84
2018-07-15T04:07:43.290Z,18.95
2018-07-15T04:08:43.402Z,18.97
2018-07-15T04:09:43.254Z,18.94
2018-07-15T04:10:43.196Z,18.97
2018-07-15T04:11:43.173Z,18.92
2018-07-15T04:12:43.130Z,18.90
2018-07-15T04:13:43.101Z,18.91
2018-07-15T04:14:43.068Z,18.95
2018-07-15T04:15:43.037Z,18.97
2018-07-15T04:16:42.997Z,19.05
2018-07-15T04:17:42.990Z,19.02
2018-07-15T04:18:43.087Z,19.10
2018-07-15T04:19:42.901Z,19.08
2018-07-15T04:20:42.870Z,19.13
2018-07-15T04:21:42.842Z,19.13
2018-07-15T04:22:42.813Z,19.11
2018-07-15T04:23:42.783Z,19.15
2018-07-15T04:24:42.996Z,19.13
2018-07-15T04:25:42.725Z,19.06
2018-07-15T04:26:42.682Z,19.13
2018-07-15T04:27:42.645Z,18.95
2018-07-15T04:28:42.618Z,18.98
2018-07-15T04:29:42.580Z,18.86
2018-07-15T04:30:42.778Z,18.91
2018-07-15T04:31:42.572Z,18.95
2018-07-15T04:32:42.489Z,18.91
2018-07-15T04:33:42.449Z,18.91
2018-07-15T04:34:42.414Z,18.77
2018-07-15T04:35:42.384Z,18.83
2018-07-15T04:36:42.354Z,18.82
2018-07-15T04:37:42.322Z,18.68
2018-07-15T04:38:42.300Z,18.74
2018-07-15T04:39:42.252Z,18.68
2018-07-15T04:40:42.220Z,18.70
2018-07-15T04:41:42.188Z,18.73
2018-07-15T04:42:42.156Z,18.79
2018-07-15T04:43:42.207Z,18.73
2018-07-15T04:44:42.092Z,18.91
2018-07-15T04:45:42.057Z,18.83
2018-07-15T04:46:42.051Z,18.79
2018-07-15T04:47:42.002Z,18.82
2018-07-15T04:48:41.968Z,18.77
2018-07-15T04:49:41.935Z,18.80
2018-07-15T04:50:41.894Z,18.87
2018-07-15T04:51:42.011Z,18.82
2018-07-15T04:52:41.834Z,18.83
2018-07-15T04:53:41.795Z,18.80
2018-07-15T04:54:41.792Z,18.80
2018-07-15T04:55:41.730Z,18.77
2018-07-15T04:56:41.699Z,18.76
2018-07-15T04:57:41.964Z,18.79
2018-07-15T04:58:41.633Z,18.74
2018-07-15T04:59:41.612Z,18.76
2018-07-15T05:00:41.572Z,18.70
2018-07-15T05:01:41.536Z,18.77
2018-07-15T05:02:41.508Z,18.79
2018-07-15T05:03:41.497Z,18.73
2018-07-15T05:04:41.437Z,18.73
2018-07-15T05:05:41.406Z,18.84
2018-07-15T05:06:41.384Z,18.79
2018-07-15T05:07:41.346Z,18.80
2018-07-15T05:08:41.317Z,18.84
2018-07-15T05:09:41.279Z,18.83
2018-07-15T05:10:41.241Z,18.76
2018-07-15T05:11:41.207Z,18.84
2018-07-15T05:12:41.176Z,18.80
2018-07-15T05:13:41.148Z,18.82
2018-07-15T05:14:41.143Z,18.86
2018-07-15T05:15:41.096Z,18.82
2018-07-15T05:16:41.053Z,18.83
2018-07-15T05:17:41.022Z,18.79
2018-07-15T05:18:41.337Z,18.76
2018-07-15T05:19:40.952Z,18.76
2018-07-15T05:20:40.916Z,18.62
2018-07-15T05:21:40.886Z,18.64
2018-07-15T05:22:40.853Z,18.68
2018-07-15T05:23:40.815Z,18.54
2018-07-15T05:24:40.835Z,18.62
2018-07-15T05:25:40.755Z,18.54
2018-07-15T05:26:40.723Z,18.52
2018-07-15T05:27:40.702Z,18.46
2018-07-15T05:28:40.655Z,18.54
2018-07-15T05:29:40.627Z,18.46
2018-07-15T05:30:40.591Z,18.43
2018-07-15T05:31:40.561Z,18.49
2018-07-15T05:32:40.523Z,18.52
2018-07-15T05:33:40.488Z,18.52
2018-07-15T05:34:40.468Z,18.50
2018-07-15T05:35:40.548Z,18.52
2018-07-15T05:36:40.393Z,18.47
2018-07-15T05:37:40.380Z,18.52
2018-07-15T05:38:40.329Z,18.65
2018-07-15T05:39:40.290Z,18.62
2018-07-15T05:40:40.258Z,18.64
2018-07-15T05:41:40.226Z,18.68
2018-07-15T05:42:40.195Z,18.65
2018-07-15T05:43:40.172Z,18.62
2018-07-15T05:44:40.132Z,18.64
2018-07-15T05:45:40.096Z,18.64
2018-07-15T05:46:40.063Z,18.61
2018-07-15T05:47:40.028Z,18.62
2018-07-15T05:48:39.996Z,18.50
2018-07-15T05:49:39.966Z,18.57
2018-07-15T05:50:39.935Z,18.44
2018-07-15T05:51:39.898Z,18.55
2018-07-15T05:52:39.865Z,18.44
2018-07-15T05:53:39.833Z,18.44
2018-07-15T05:54:39.808Z,18.46
2018-07-15T05:55:39.766Z,18.28
2018-07-15T05:56:39.736Z,18.36
2018-07-15T05:57:39.716Z,18.31
2018-07-15T05:58:39.676Z,18.37
2018-07-15T05:59:39.637Z,18.40
2018-07-15T06:00:39.603Z,18.49
2018-07-15T06:01:39.570Z,18.46
2018-07-15T06:02:39.790Z,18.47
2018-07-15T06:03:39.509Z,18.49
2018-07-15T06:04:39.480Z,18.54
2018-07-15T06:05:39.445Z,18.40
2018-07-15T06:06:39.407Z,18.39
2018-07-15T06:07:39.382Z,18.46
2018-07-15T06:08:39.340Z,18.39
2018-07-15T06:09:39.314Z,18.36
2018-07-15T06:10:39.331Z,18.28
2018-07-15T06:11:39.244Z,18.44
2018-07-15T06:12:39.208Z,18.42
2018-07-15T06:13:39.185Z,18.47
2018-07-15T06:14:39.142Z,18.52
2018-07-15T06:15:39.122Z,18.47
2018-07-15T06:16:39.081Z,18.44
2018-07-15T06:17:39.048Z,18.43
2018-07-15T06:18:39.211Z,18.40
2018-07-15T06:19:38.977Z,18.36
2018-07-15T06:20:38.944Z,18.37
2018-07-15T06:21:38.909Z,18.28
2018-07-15T06:22:38.909Z,18.33
2018-07-15T06:23:38.849Z,18.28
2018-07-15T06:24:38.911Z,18.19
2018-07-15T06:25:38.782Z,18.27
2018-07-15T06:26:38.756Z,18.22
2018-07-15T06:27:38.715Z,18.21
2018-07-15T06:28:38.682Z,18.31
2018-07-15T06:29:38.646Z,18.29
2018-07-15T06:30:38.617Z,18.39
2018-07-15T06:31:38.589Z,18.37
2018-07-15T06:32:38.549Z,18.39
2018-07-15T06:33:38.527Z,18.31
2018-07-15T06:34:38.489Z,18.36
2018-07-15T06:36:38.417Z,18.43
2018-07-15T06:37:38.387Z,18.36
2018-07-15T06:38:38.349Z,18.39
2018-07-15T06:39:38.336Z,18.36
2018-07-15T06:40:38.289Z,18.43
2018-07-15T06:41:38.259Z,18.33
2018-07-15T06:42:38.218Z,18.36
2018-07-15T06:43:38.189Z,18.39
2018-07-15T06:44:38.154Z,18.42
2018-07-15T06:45:38.122Z,18.44
2018-07-15T06:46:38.094Z,18.44
2018-07-15T06:47:38.059Z,18.44
2018-07-15T06:48:38.020Z,18.50
2018-07-15T06:49:37.992Z,18.59
2018-07-15T06:50:37.960Z,18.57
2018-07-15T06:51:38.275Z,18.62
2018-07-15T06:52:37.915Z,18.64
2018-07-15T06:53:37.876Z,18.67
2018-07-15T06:54:37.821Z,18.55
2018-07-15T06:55:37.788Z,18.62
2018-07-15T06:56:37.759Z,18.62
2018-07-15T06:57:37.953Z,18.59
2018-07-15T06:58:37.694Z,18.65
2018-07-15T06:59:37.659Z,18.61
2018-07-15T07:00:37.626Z,18.68
2018-07-15T07:01:37.664Z,18.67
2018-07-15T07:02:37.569Z,18.62
2018-07-15T07:03:37.528Z,18.59
2018-07-15T07:04:37.492Z,18.59
2018-07-15T07:05:37.458Z,18.61
2018-07-15T07:06:37.435Z,18.55
2018-07-15T07:07:37.445Z,18.49
2018-07-15T07:08:37.361Z,18.44
2018-07-15T07:09:37.329Z,18.44
2018-07-15T07:10:37.293Z,18.46
2018-07-15T07:11:37.263Z,18.39
2018-07-15T07:12:37.228Z,18.33
2018-07-15T07:13:37.202Z,18.36
2018-07-15T07:14:37.165Z,18.33
2018-07-15T07:15:37.128Z,18.21
2018-07-15T07:16:37.099Z,18.17
2018-07-15T07:17:37.069Z,18.21
2018-07-15T07:18:37.230Z,18.04
2018-07-15T07:19:37.003Z,18.10
2018-07-15T07:20:36.973Z,17.99
2018-07-15T07:21:36.935Z,18.04
2018-07-15T07:22:36.897Z,18.02
2018-07-15T07:23:36.874Z,18.00
2018-07-15T07:24:37.184Z,18.07
2018-07-15T07:25:36.798Z,18.06
2018-07-15T07:26:36.765Z,18.06
2018-07-15T07:27:36.746Z,18.10
2018-07-15T07:28:36.703Z,18.19
2018-07-15T07:29:36.670Z,18.24
2018-07-15T07:30:36.630Z,18.28
2018-07-15T07:31:36.600Z,18.36
2018-07-15T07:32:36.568Z,18.39
2018-07-15T07:33:36.531Z,18.43
2018-07-15T07:34:36.501Z,18.34
2018-07-15T07:35:36.466Z,18.39
2018-07-15T07:36:36.437Z,18.27
2018-07-15T07:37:36.400Z,18.29
2018-07-15T07:38:36.404Z,18.42
2018-07-15T07:39:36.333Z,18.46
2018-07-15T07:40:36.299Z,18.44
2018-07-15T07:41:36.276Z,18.27
2018-07-15T07:42:36.239Z,18.28
2018-07-15T07:43:36.200Z,18.36
2018-07-15T07:44:36.170Z,18.42
2018-07-15T07:45:36.132Z,18.43
2018-07-15T07:46:36.098Z,18.50
2018-07-15T07:47:36.067Z,18.44
2018-07-15T07:48:36.038Z,18.44
2018-07-15T07:49:36.008Z,18.42
2018-07-15T07:50:35.968Z,18.46
2018-07-15T07:51:35.940Z,18.34
2018-07-15T07:52:35.904Z,18.37
2018-07-15T07:53:35.869Z,18.31
2018-07-15T07:54:35.833Z,18.22
2018-07-15T07:55:35.799Z,18.17
2018-07-15T07:56:35.772Z,18.02
2018-07-15T07:57:35.736Z,18.13
2018-07-15T07:58:35.708Z,18.15
2018-07-15T07:59:35.677Z,18.07
2018-07-15T08:00:35.633Z,18.06
2018-07-15T08:01:35.601Z,17.92
2018-07-15T08:02:35.773Z,17.82
2018-07-15T08:03:35.538Z,17.89
2018-07-15T08:04:35.504Z,17.78
2018-07-15T08:05:35.474Z,17.66
2018-07-15T08:06:35.434Z,17.48
2018-07-15T08:07:35.454Z,17.48
2018-07-15T08:08:35.367Z,17.47
2018-07-15T08:09:35.335Z,17.32
2018-07-15T08:10:35.320Z,17.35
2018-07-15T08:11:35.273Z,17.22
2018-07-15T08:12:35.237Z,17.22
2018-07-15T08:13:35.203Z,17.35
2018-07-15T08:14:35.199Z,17.26
2018-07-15T08:15:35.137Z,17.25
2018-07-15T08:16:35.104Z,17.25
2018-07-15T08:17:35.078Z,17.20
2018-07-15T08:18:35.147Z,17.22
2018-07-15T08:19:35.018Z,17.40
2018-07-15T08:20:34.999Z,17.44
2018-07-15T08:21:34.936Z,17.47
2018-07-15T08:22:34.944Z,17.53
2018-07-15T08:23:34.877Z,17.48
2018-07-15T08:24:34.879Z,17.50
2018-07-15T08:25:34.804Z,17.47
2018-07-15T08:26:34.776Z,17.48
2018-07-15T08:27:34.733Z,17.57
2018-07-15T08:28:34.790Z,17.53
2018-07-15T08:29:34.672Z,17.55
2018-07-15T08:30:34.634Z,17.63
2018-07-15T08:31:34.602Z,17.55
2018-07-15T08:32:34.566Z,17.66
2018-07-15T08:33:34.539Z,17.59
2018-07-15T08:34:34.504Z,17.59
2018-07-15T08:35:34.667Z,17.53
2018-07-15T08:36:34.435Z,17.47
2018-07-15T08:37:34.403Z,17.47
2018-07-15T08:38:34.369Z,17.63
2018-07-15T08:39:34.333Z,17.59
2018-07-15T08:40:34.315Z,17.64
2018-07-15T08:41:34.275Z,17.57
2018-07-15T08:42:34.237Z,17.63
2018-07-15T08:43:34.208Z,17.63
2018-07-15T08:44:34.166Z,17.57
2018-07-15T08:45:34.143Z,17.64
2018-07-15T08:46:34.099Z,17.63
2018-07-15T08:47:34.068Z,17.63
2018-07-15T08:48:34.039Z,17.64
2018-07-15T08:49:33.999Z,17.64
2018-07-15T08:50:33.970Z,17.71
2018-07-15T08:51:33.930Z,17.62
2018-07-15T08:52:33.904Z,17.70
2018-07-15T08:53:33.867Z,17.71
2018-07-15T08:54:33.852Z,17.64
2018-07-15T08:55:33.802Z,17.73
2018-07-15T08:56:33.768Z,17.79
2018-07-15T08:57:33.729Z,17.71
2018-07-15T08:58:33.695Z,17.78
2018-07-15T08:59:33.700Z,17.79
2018-07-15T09:00:33.633Z,17.76
2018-07-15T09:01:33.599Z,17.73
2018-07-15T09:02:33.640Z,17.79
2018-07-15T09:03:33.556Z,17.74
2018-07-15T09:04:33.497Z,17.74
2018-07-15T09:05:33.461Z,17.70
2018-07-15T09:06:33.427Z,17.74
2018-07-15T09:07:33.393Z,17.78
2018-07-15T09:08:33.364Z,17.66
2018-07-15T09:09:33.325Z,17.66
2018-07-15T09:10:33.292Z,17.57
2018-07-15T09:11:33.260Z,17.64
2018-07-15T09:12:33.274Z,17.51
2018-07-15T09:13:33.208Z,17.57
2018-07-15T09:14:33.162Z,17.64
2018-07-15T09:15:33.132Z,17.51
2018-07-15T09:16:33.292Z,17.63
2018-07-15T09:17:33.057Z,17.55
2018-07-15T09:18:33.029Z,17.66
2018-07-15T09:19:33.000Z,17.59
2018-07-15T09:20:32.965Z,17.62
2018-07-15T09:21:32.924Z,17.63
2018-07-15T09:22:33.101Z,17.62
2018-07-15T09:23:32.858Z,17.55
2018-07-15T09:24:32.820Z,17.69
2018-07-15T09:25:32.789Z,17.67
2018-07-15T09:26:32.765Z,17.55
2018-07-15T09:28:32.697Z,17.48
2018-07-15T09:29:32.654Z,17.51
2018-07-15T09:30:32.620Z,17.55
2018-07-15T09:31:32.588Z,17.47
2018-07-15T09:32:32.557Z,17.54
2018-07-15T09:33:32.520Z,17.51
2018-07-15T09:34:32.493Z,17.48
2018-07-15T09:35:32.456Z,17.44
2018-07-15T09:36:32.419Z,17.33
2018-07-15T09:37:32.393Z,17.28
2018-07-15T09:38:32.348Z,17.30
2018-07-15T09:39:32.325Z,17.22
2018-07-15T09:40:32.293Z,17.23
2018-07-15T09:41:32.247Z,17.20
2018-07-15T09:42:32.220Z,17.20
2018-07-15T09:43:32.178Z,17.08
2018-07-15T09:44:32.159Z,17.17
2018-07-15T09:45:32.117Z,17.14
2018-07-15T09:46:32.077Z,17.14
2018-07-15T09:47:32.047Z,17.15
2018-07-15T09:48:32.011Z,17.14
2018-07-15T09:49:31.974Z,17.11
2018-07-15T09:50:31.944Z,17.00
2018-07-15T09:51:31.910Z,17.00
2018-07-15T09:52:31.875Z,16.96
2018-07-15T09:53:31.845Z,17.03
2018-07-15T09:54:31.812Z,16.92
2018-07-15T09:55:31.788Z,16.85
2018-07-15T09:56:31.740Z,16.75
2018-07-15T09:57:31.709Z,16.74
2018-07-15T09:58:31.675Z,16.73
2018-07-15T09:59:31.640Z,16.62
2018-07-15T10:00:31.618Z,16.62
2018-07-15T10:01:31.577Z,16.58
2018-07-15T10:02:31.542Z,16.59
2018-07-15T10:03:31.503Z,16.60
2018-07-15T10:04:31.484Z,16.68
2018-07-15T10:05:31.436Z,16.63
2018-07-15T10:06:31.413Z,16.59
2018-07-15T10:07:31.417Z,16.67
2018-07-15T10:08:31.337Z,16.74
2018-07-15T10:09:31.308Z,16.74
2018-07-15T10:10:31.347Z,16.74
2018-07-15T10:11:31.235Z,16.75
2018-07-15T10:12:31.209Z,16.88
2018-07-15T10:13:31.169Z,16.86
2018-07-15T10:14:31.140Z,16.95
2018-07-15T10:15:31.249Z,16.92
2018-07-15T10:16:31.070Z,17.00
2018-07-15T10:17:31.033Z,16.99
2018-07-15T10:18:31.000Z,17.11
2018-07-15T10:19:30.969Z,17.06
2018-07-15T10:20:30.933Z,17.10
2018-07-15T10:21:30.907Z,17.08
2018-07-15T10:22:30.867Z,17.18
2018-07-15T10:23:30.833Z,17.15
2018-07-15T10:24:30.797Z,17.25
2018-07-15T10:25:30.762Z,17.17
2018-07-15T10:26:30.759Z,17.25
2018-07-15T10:27:30.695Z,17.26
2018-07-15T10:28:30.665Z,17.36
2018-07-15T10:29:30.636Z,17.50
2018-07-15T10:30:30.595Z,17.50
2018-07-15T10:31:30.573Z,17.53
2018-07-15T10:32:30.733Z,17.54
2018-07-15T10:33:30.499Z,17.64
2018-07-15T10:34:30.464Z,17.57
2018-07-15T10:35:30.428Z,17.66
2018-07-15T10:36:30.397Z,17.71
2018-07-15T10:37:30.367Z,17.71
2018-07-15T10:38:30.327Z,17.66
2018-07-15T10:39:30.293Z,17.70
2018-07-15T10:40:30.261Z,17.71
2018-07-15T10:41:30.231Z,17.74
2018-07-15T10:42:30.203Z,17.76
2018-07-15T10:43:30.165Z,17.76
2018-07-15T10:44:30.149Z,17.79
2018-07-15T10:45:30.095Z,17.79
2018-07-15T10:46:30.065Z,17.82
2018-07-15T10:47:30.042Z,17.88
2018-07-15T10:48:29.998Z,17.87
2018-07-15T10:49:29.968Z,17.81
2018-07-15T10:50:29.938Z,17.89
2018-07-15T10:51:29.897Z,17.99
2018-07-15T10:52:29.882Z,18.06
2018-07-15T10:53:29.834Z,18.06
2018-07-15T10:54:29.800Z,18.13
2018-07-15T10:55:29.766Z,18.22
2018-07-15T10:56:29.736Z,18.34
2018-07-15T10:57:29.698Z,18.33
2018-07-15T10:58:29.673Z,18.40
2018-07-15T10:59:29.633Z,18.47
2018-07-15T11:00:29.607Z,18.54
2018-07-15T11:01:29.568Z,18.62
2018-07-15T11:02:29.540Z,18.70
2018-07-15T11:03:29.611Z,18.68
2018-07-15T11:04:29.470Z,18.79
2018-07-15T11:05:29.438Z,18.86
2018-07-15T11:06:29.436Z,18.87
2018-07-15T11:07:29.375Z,18.99
2018-07-15T11:08:29.538Z,18.97
2018-07-15T11:09:29.509Z,18.97
2018-07-15T11:10:29.279Z,19.10
2018-07-15T11:11:29.244Z,19.15
2018-07-15T11:12:29.210Z,19.13
2018-07-15T11:13:29.252Z,19.23
2018-07-15T11:14:29.141Z,19.20
2018-07-15T11:15:29.329Z,19.29
2018-07-15T11:16:29.113Z,19.33
2018-07-15T11:17:29.050Z,19.33
2018-07-15T11:18:29.013Z,19.38
2018-07-15T11:19:28.990Z,19.40
2018-07-15T11:20:28.973Z,19.53
2018-07-15T11:21:28.916Z,19.55
2018-07-15T11:22:28.934Z,19.58
2018-07-15T11:23:28.860Z,19.69
2018-07-15T11:24:28.819Z,19.61
2018-07-15T11:25:28.788Z,19.65
2018-07-15T11:26:28.755Z,19.73
2018-07-15T11:27:28.723Z,19.70
2018-07-15T11:28:28.694Z,19.69
2018-07-15T11:29:28.659Z,19.79
2018-07-15T11:30:28.641Z,19.79
2018-07-15T11:31:28.648Z,19.83
2018-07-15T11:32:28.765Z,19.83
2018-07-15T11:33:28.535Z,19.91
2018-07-15T11:34:28.512Z,19.88
2018-07-15T11:35:28.469Z,19.93
2018-07-15T11:36:28.439Z,20.00
2018-07-15T11:37:28.407Z,19.97
2018-07-15T11:38:28.442Z,20.02
2018-07-15T11:39:28.336Z,20.00
2018-07-15T11:40:28.311Z,20.18
2018-07-15T11:41:28.273Z,20.08
2018-07-15T11:42:28.247Z,20.16
2018-07-15T11:43:28.214Z,20.13
2018-07-15T11:44:28.184Z,20.24
2018-07-15T11:45:28.157Z,20.23
2018-07-15T11:46:28.144Z,20.25
2018-07-15T11:47:28.085Z,20.31
2018-07-15T11:48:28.158Z,20.41
2018-07-15T11:49:28.025Z,20.46
2018-07-15T11:50:28.065Z,20.41
2018-07-15T11:51:27.960Z,20.46
2018-07-15T11:52:27.928Z,20.56
2018-07-15T11:53:27.900Z,20.54
2018-07-15T11:54:27.875Z,20.58
2018-07-15T11:55:27.846Z,20.62
2018-07-15T11:56:27.807Z,20.61
2018-07-15T11:57:27.780Z,20.65
2018-07-15T11:58:27.742Z,20.76
2018-07-15T11:59:27.714Z,20.72
2018-07-15T12:00:27.716Z,20.76
2018-07-15T12:01:27.676Z,20.77
2018-07-15T12:02:27.623Z,20.89
2018-07-15T12:03:27.588Z,20.89
2018-07-15T12:04:27.558Z,20.91
2018-07-15T12:05:27.522Z,20.90
2018-07-15T12:06:27.487Z,20.95
2018-07-15T12:07:27.521Z,20.89
2018-07-15T12:08:27.428Z,20.99
2018-07-15T12:09:27.403Z,21.05
2018-07-15T12:10:27.365Z,21.08
2018-07-15T12:11:27.331Z,21.11
2018-07-15T12:12:27.303Z,21.16
2018-07-15T12:13:27.279Z,21.13
2018-07-15T12:14:27.255Z,21.14
2018-07-15T12:15:27.215Z,21.19
2018-07-15T12:16:27.192Z,21.23
2018-07-15T12:17:27.149Z,21.26
2018-07-15T12:18:27.118Z,21.26
2018-07-15T12:19:27.087Z,21.27
2018-07-15T12:20:27.080Z,21.30
2018-07-15T12:21:27.033Z,21.24
2018-07-15T12:22:26.998Z,21.30
2018-07-15T12:23:26.968Z,21.29
2018-07-15T12:24:26.936Z,21.39
2018-07-15T12:25:26.900Z,21.32
2018-07-15T12:26:26.868Z,21.35
2018-07-15T12:27:26.841Z,21.30
2018-07-15T12:28:26.808Z,21.35
2018-07-15T12:29:26.829Z,21.44
2018-07-15T12:30:26.756Z,21.38
2018-07-15T12:31:26.717Z,21.39
2018-07-15T12:32:26.691Z,21.39
2018-07-15T12:33:26.689Z,21.45
2018-07-15T12:34:26.626Z,21.45
2018-07-15T12:35:26.593Z,21.54
2018-07-15T12:36:26.567Z,21.54
2018-07-15T12:37:26.593Z,21.51
2018-07-15T12:38:26.531Z,21.53
2018-07-15T12:39:26.500Z,21.54
2018-07-15T12:40:26.701Z,21.53
2018-07-15T12:41:26.423Z,21.56
2018-07-15T12:42:26.381Z,21.57
2018-07-15T12:43:26.384Z,21.54
2018-07-15T12:44:26.327Z,21.51
2018-07-15T12:45:26.305Z,21.57
2018-07-15T12:46:26.271Z,21.60
2018-07-15T12:47:26.239Z,21.59
2018-07-15T12:48:26.212Z,21.61
2018-07-15T12:49:26.176Z,21.64
2018-07-15T12:50:26.140Z,21.60
2018-07-15T12:51:26.362Z,21.63
2018-07-15T12:52:26.079Z,21.63
2018-07-15T12:53:26.047Z,21.63
2018-07-15T12:54:26.024Z,21.64
2018-07-15T12:55:25.985Z,21.61